Time;durP1;ratioP1;P1;durP2;ratioP2;P2;SDS_P1;SDS_P2;PMS_P1;PMS_P2;Temp;Humidity;BMP_temperature;BMP_pressure;BME280_temperature;BME280_humidity;BME280_pressure;Samples;Min_cycle;Max_cycle;Signal;HPM_P1;HPM_P2
2024/03/11 00:00:01;;;;;;;20.20;10.77;;;6.40;99.90;;;;;;4194234;28;20265;-82
2024/03/11 00:02:04;;;;;;;20.07;10.50;;;6.40;99.90;;;;;;4196782;28;20203;-82
2024/03/11 00:04:07;;;;;;;21.80;11.47;;;6.40;99.90;;;;;;4194165;28;20207;-82
2024/03/11 00:06:09;;;;;;;19.23;10.63;;;6.60;99.90;;;;;;4193872;28;20720;-81
2024/03/11 00:08:16;;;;;;;17.17;9.80;;;6.50;99.90;;;;;;4193682;28;20301;-81
2024/03/11 00:10:18;;;;;;;21.70;10.63;;;6.40;99.90;;;;;;4198292;28;20195;-81
2024/03/11 00:12:23;;;;;;;22.33;11.17;;;6.50;99.90;;;;;;4194150;28;20218;-81
2024/03/11 00:14:28;;;;;;;19.27;9.90;;;6.50;99.90;;;;;;4196965;28;20732;-81
2024/03/11 00:16:31;;;;;;;19.73;10.73;;;6.40;99.90;;;;;;4195002;28;20249;-81
2024/03/11 00:18:34;;;;;;;19.83;10.93;;;6.50;99.90;;;;;;4195204;28;20762;-81
2024/03/11 00:20:36;;;;;;;19.20;10.47;;;6.50;99.90;;;;;;4194398;28;20275;-81
2024/03/11 00:22:37;;;;;;;19.93;10.30;;;6.40;99.90;;;;;;4195098;28;20650;-81
2024/03/11 00:24:39;;;;;;;23.17;10.23;;;6.50;99.90;;;;;;4197556;28;20199;-81
2024/03/11 00:26:41;;;;;;;18.60;10.10;;;6.50;99.90;;;;;;4193250;28;20241;-81
2024/03/11 00:28:44;;;;;;;17.63;10.83;;;6.50;99.90;;;;;;4192675;28;20223;-81
2024/03/11 00:30:46;;;;;;;18.83;10.30;;;6.60;99.90;;;;;;4197021;28;20305;-81
2024/03/11 00:32:47;;;;;;;20.80;10.50;;;6.50;99.90;;;;;;4193550;28;20761;-80
2024/03/11 00:34:51;;;;;;;19.23;10.83;;;6.50;99.90;;;;;;4192237;28;20265;-82
2024/03/11 00:36:53;;;;;;;18.23;9.83;;;6.90;99.90;;;;;;4208988;28;20995;-80
2024/03/11 00:38:55;;;;;;;18.07;9.77;;;6.50;99.90;;;;;;4193364;28;20670;-80
2024/03/11 00:40:57;;;;;;;21.00;9.97;;;6.50;99.90;;;;;;4193364;28;20256;-80
2024/03/11 00:42:58;;;;;;;18.93;10.77;;;6.50;99.90;;;;;;4205832;28;21108;-80
2024/03/11 00:45:00;;;;;;;19.03;10.17;;;6.50;99.90;;;;;;4199532;28;20203;-83
2024/03/11 00:47:02;;;;;;;17.33;9.57;;;6.70;99.90;;;;;;4202252;28;20251;-83
2024/03/11 00:49:06;;;;;;;19.93;10.43;;;6.60;99.90;;;;;;4198350;28;20292;-81
2024/03/11 00:51:12;;;;;;;20.43;10.80;;;6.50;99.90;;;;;;4190081;28;20217;-82
2024/03/11 00:53:15;;;;;;;20.90;11.17;;;6.60;99.90;;;;;;4196842;28;20263;-80
2024/03/11 00:55:17;;;;;;;21.73;11.27;;;6.50;99.90;;;;;;4196733;28;20579;-80
2024/03/11 00:57:19;;;;;;;21.10;11.13;;;6.60;99.90;;;;;;4197152;28;20248;-80
2024/03/11 00:59:21;;;;;;;22.43;11.43;;;6.60;99.90;;;;;;4191124;28;20238;-80
2024/03/11 01:01:25;;;;;;;19.43;10.73;;;6.60;99.90;;;;;;4212173;28;20301;-80
2024/03/11 01:03:29;;;;;;;19.73;10.27;;;6.60;99.90;;;;;;4194649;28;20281;-80
2024/03/11 01:05:31;;;;;;;17.17;9.40;;;6.60;99.90;;;;;;4195359;28;20666;-80
2024/03/11 01:07:35;;;;;;;19.30;9.97;;;6.60;99.90;;;;;;4211715;28;20237;-80
2024/03/11 01:09:37;;;;;;;22.83;11.30;;;6.50;99.90;;;;;;4188935;28;20310;-80
2024/03/11 01:11:56;;;;;;;18.77;10.00;;;6.60;99.90;;;;;;4204488;28;20202;-82
2024/03/11 01:13:58;;;;;;;19.40;9.90;;;6.50;99.90;;;;;;4200034;28;20580;-80
2024/03/11 01:16:00;;;;;;;20.80;10.60;;;6.50;99.90;;;;;;4193637;28;20256;-81
2024/03/11 01:18:04;;;;;;;17.23;9.93;;;6.50;99.90;;;;;;4194579;28;20222;-80
2024/03/11 01:20:09;;;;;;;18.20;9.97;;;6.50;99.90;;;;;;4195390;28;20205;-80
2024/03/11 01:22:12;;;;;;;16.57;9.43;;;6.60;99.90;;;;;;4191875;28;20189;-81
2024/03/11 01:24:16;;;;;;;20.33;10.23;;;6.60;99.90;;;;;;4201454;28;20320;-80
2024/03/11 01:26:18;;;;;;;18.10;9.60;;;6.60;99.90;;;;;;4195643;28;20217;-82
2024/03/11 01:28:20;;;;;;;18.10;10.17;;;6.60;99.90;;;;;;4196561;28;20240;-82
2024/03/11 01:30:24;;;;;;;20.53;9.87;;;6.60;99.90;;;;;;4191558;28;20270;-82
2024/03/11 01:32:28;;;;;;;19.93;10.47;;;6.60;99.90;;;;;;4193460;28;20209;-82
2024/03/11 01:34:30;;;;;;;20.17;11.00;;;6.60;99.90;;;;;;4193592;28;20235;-80
2024/03/11 01:36:36;;;;;;;20.40;11.50;;;6.70;99.90;;;;;;4188136;28;20672;-80
2024/03/11 01:38:39;;;;;;;20.37;11.53;;;6.70;99.90;;;;;;4190907;28;20225;-80
2024/03/11 01:40:43;;;;;;;22.40;11.77;;;6.60;99.90;;;;;;4210262;28;20263;-80
2024/03/11 01:42:44;;;;;;;22.93;11.40;;;6.60;99.90;;;;;;4192571;28;20218;-80
2024/03/11 01:44:48;;;;;;;21.83;11.47;;;6.60;99.90;;;;;;4196041;28;20214;-80
2024/03/11 01:46:55;;;;;;;19.43;10.53;;;6.60;99.90;;;;;;4197269;28;21493;-79
2024/03/11 01:48:59;;;;;;;20.40;10.93;;;6.60;99.90;;;;;;4194327;28;20260;-84
2024/03/11 01:51:03;;;;;;;20.43;11.40;;;6.40;99.90;;;;;;4193017;28;20225;-80
2024/03/11 01:53:05;;;;;;;18.87;10.37;;;6.50;99.90;;;;;;4196681;28;20202;-81
2024/03/11 01:55:08;;;;;;;19.30;10.73;;;6.50;99.90;;;;;;4196198;28;20213;-81
2024/03/11 01:57:12;;;;;;;21.07;11.37;;;6.40;99.90;;;;;;4193585;28;20218;-82
2024/03/11 01:59:14;;;;;;;19.90;10.40;;;6.80;99.90;;;;;;4190430;28;20260;-81
2024/03/11 02:01:17;;;;;;;20.50;11.40;;;6.50;99.90;;;;;;4187387;28;20255;-80
2024/03/11 02:03:22;;;;;;;16.30;10.40;;;6.60;99.90;;;;;;4189545;28;20220;-81
2024/03/11 02:05:29;;;;;;;16.03;9.43;;;6.50;99.90;;;;;;4193157;28;20318;-81
2024/03/11 02:07:31;;;;;;;17.93;10.20;;;6.50;99.90;;;;;;4190786;28;20222;-81
2024/03/11 02:09:34;;;;;;;19.43;10.47;;;6.50;99.90;;;;;;4194476;28;20889;-81
2024/03/11 02:11:36;;;;;;;19.10;10.80;;;6.50;99.90;;;;;;4192863;28;20202;-80
2024/03/11 02:13:42;;;;;;;19.40;11.27;;;6.50;99.90;;;;;;4193922;28;20259;-82
2024/03/11 02:15:44;;;;;;;21.33;11.40;;;6.50;99.90;;;;;;4191270;28;20204;-81
2024/03/11 02:17:47;;;;;;;22.93;12.00;;;6.60;99.90;;;;;;4193562;28;20233;-81
2024/03/11 02:19:49;;;;;;;25.03;12.93;;;6.50;99.90;;;;;;4192671;28;20252;-80
2024/03/11 02:21:51;;;;;;;23.13;12.00;;;6.50;99.90;;;;;;4194792;28;20248;-80
2024/03/11 02:23:55;;;;;;;20.03;11.70;;;6.60;99.90;;;;;;4190241;28;20297;-80
2024/03/11 02:25:57;;;;;;;26.33;13.53;;;6.80;99.90;;;;;;4189644;28;20306;-80
2024/03/11 02:27:59;;;;;;;21.37;11.97;;;6.60;99.90;;;;;;4192944;28;20221;-81
2024/03/11 02:30:01;;;;;;;20.97;11.97;;;6.60;99.90;;;;;;4195045;28;20290;-82
2024/03/11 02:32:03;;;;;;;22.50;12.03;;;6.80;99.90;;;;;;4195417;28;20202;-82
2024/03/11 02:34:05;;;;;;;18.90;11.10;;;6.60;99.90;;;;;;4195151;28;20194;-82
2024/03/11 02:36:09;;;;;;;19.33;11.10;;;6.60;99.90;;;;;;4194493;28;20202;-82
2024/03/11 02:38:13;;;;;;;19.50;10.97;;;6.60;99.90;;;;;;4196031;28;20286;-82
2024/03/11 02:40:18;;;;;;;16.93;10.60;;;6.60;99.90;;;;;;4194090;28;20203;-82
2024/03/11 02:42:25;;;;;;;22.30;12.23;;;6.60;99.90;;;;;;4196351;28;20815;-81
2024/03/11 02:44:28;;;;;;;23.43;12.67;;;6.60;99.90;;;;;;4194571;28;20202;-81
2024/03/11 02:46:31;;;;;;;20.70;12.60;;;6.60;99.90;;;;;;4194179;28;20325;-81
2024/03/11 02:48:33;;;;;;;23.17;12.30;;;6.70;99.90;;;;;;4197788;28;20629;-82
2024/03/11 02:50:35;;;;;;;23.60;12.93;;;6.60;99.90;;;;;;4198038;28;20202;-81
2024/03/11 02:52:38;;;;;;;23.60;12.43;;;6.60;99.90;;;;;;4197863;28;20266;-82
2024/03/11 02:54:42;;;;;;;21.53;11.43;;;6.60;99.90;;;;;;4198738;28;20231;-81
2024/03/11 02:56:51;;;;;;;21.23;11.40;;;6.60;99.90;;;;;;4200982;28;20218;-81
2024/03/11 02:58:57;;;;;;;21.90;12.40;;;6.60;99.90;;;;;;4199490;28;20748;-81
2024/03/11 03:01:01;;;;;;;24.17;13.30;;;6.60;99.90;;;;;;4196534;28;20224;-81
2024/03/11 03:03:08;;;;;;;19.50;11.33;;;6.60;99.90;;;;;;4197693;28;20881;-81
2024/03/11 03:05:11;;;;;;;21.60;12.07;;;6.60;99.90;;;;;;4200553;28;20236;-81
2024/03/11 03:07:16;;;;;;;23.67;12.17;;;6.80;99.90;;;;;;4199965;28;20211;-81
2024/03/11 03:09:24;;;;;;;22.33;12.17;;;6.60;99.90;;;;;;4197303;28;20191;-81
2024/03/11 03:11:26;;;;;;;24.70;13.10;;;6.60;99.90;;;;;;4199600;28;20194;-81
2024/03/11 03:13:30;;;;;;;22.13;12.77;;;6.60;99.90;;;;;;4199203;28;20218;-81
2024/03/11 03:15:32;;;;;;;23.47;13.10;;;6.60;99.90;;;;;;4203463;28;20194;-81
2024/03/11 03:17:34;;;;;;;23.90;13.33;;;6.60;99.90;;;;;;4198213;28;20248;-81
2024/03/11 03:19:38;;;;;;;26.50;14.50;;;6.50;99.90;;;;;;4211876;28;20202;-82
2024/03/11 03:21:41;;;;;;;34.80;17.47;;;6.50;99.90;;;;;;4204315;28;20264;-82
2024/03/11 03:23:44;;;;;;;34.87;18.47;;;6.50;99.90;;;;;;4199654;28;20230;-81
2024/03/11 03:25:47;;;;;;;32.47;16.93;;;6.60;99.90;;;;;;4204229;28;20203;-81
2024/03/11 03:27:49;;;;;;;30.77;15.87;;;6.60;99.90;;;;;;4204125;28;20312;-81
2024/03/11 03:29:55;;;;;;;32.13;16.43;;;6.50;99.90;;;;;;4202505;28;20214;-82
2024/03/11 03:31:57;;;;;;;29.60;15.83;;;6.50;99.90;;;;;;4210309;28;20213;-81
2024/03/11 03:33:59;;;;;;;31.43;16.43;;;6.50;99.90;;;;;;4209138;28;20213;-81
2024/03/11 03:36:02;;;;;;;31.13;17.67;;;6.50;99.90;;;;;;4195515;28;20552;-81
2024/03/11 03:38:05;;;;;;;28.50;15.77;;;6.50;99.90;;;;;;4195964;28;20197;-81
2024/03/11 03:40:15;;;;;;;30.03;16.67;;;6.50;99.90;;;;;;4199707;28;20233;-81
2024/03/11 03:42:22;;;;;;;31.90;15.87;;;6.50;99.90;;;;;;4197900;28;20223;-81
2024/03/11 03:44:24;;;;;;;29.63;16.63;;;6.50;99.90;;;;;;4203697;28;20205;-81
2024/03/11 03:46:27;;;;;;;33.43;17.63;;;6.40;99.90;;;;;;4202772;28;20713;-81
2024/03/11 03:48:29;;;;;;;32.27;17.57;;;6.40;99.90;;;;;;4196338;28;20206;-81
2024/03/11 03:50:30;;;;;;;37.80;18.60;;;6.40;99.90;;;;;;4198575;28;20317;-81
2024/03/11 03:52:32;;;;;;;35.90;18.17;;;6.40;99.90;;;;;;4209630;28;20193;-81
2024/03/11 03:54:34;;;;;;;37.97;18.47;;;6.40;99.90;;;;;;4208958;28;20217;-81
2024/03/11 03:56:36;;;;;;;32.43;17.90;;;6.40;99.90;;;;;;4199620;28;20222;-81
2024/03/11 03:58:37;;;;;;;34.47;18.23;;;6.40;99.90;;;;;;4203182;28;20214;-81
2024/03/11 04:00:39;;;;;;;32.57;17.70;;;6.40;99.90;;;;;;4194596;28;20201;-81
2024/03/11 04:02:42;;;;;;;35.47;19.00;;;6.40;99.90;;;;;;4200022;28;20222;-81
2024/03/11 04:04:44;;;;;;;34.70;19.17;;;6.30;99.90;;;;;;4198102;28;20199;-81
2024/03/11 04:06:46;;;;;;;41.37;20.57;;;6.30;99.90;;;;;;4196427;28;20234;-82
2024/03/11 04:08:50;;;;;;;39.97;21.00;;;6.80;99.90;;;;;;4196320;28;20260;-81
2024/03/11 04:10:52;;;;;;;36.57;19.00;;;6.30;99.90;;;;;;4195687;28;20259;-81
2024/03/11 04:12:56;;;;;;;34.97;18.63;;;6.30;99.90;;;;;;4198518;28;20213;-81
2024/03/11 04:14:58;;;;;;;37.30;19.77;;;6.30;99.90;;;;;;4197549;28;20210;-80
2024/03/11 04:17:00;;;;;;;40.63;19.87;;;6.30;99.90;;;;;;4195201;28;20529;-81
2024/03/11 04:19:04;;;;;;;39.17;19.37;;;6.30;99.90;;;;;;4199333;28;20253;-81
2024/03/11 04:21:06;;;;;;;36.77;19.27;;;6.30;99.90;;;;;;4194533;28;20218;-81
2024/03/11 04:23:08;;;;;;;33.57;19.07;;;6.20;99.90;;;;;;4197784;28;20202;-81
2024/03/11 04:25:15;;;;;;;38.03;19.77;;;6.20;99.90;;;;;;4195465;28;20655;-81
2024/03/11 04:27:18;;;;;;;39.83;19.03;;;6.20;99.90;;;;;;4199548;28;20250;-81
2024/03/11 04:29:20;;;;;;;39.37;21.17;;;6.20;99.90;;;;;;4195274;28;20448;-81
2024/03/11 04:31:24;;;;;;;39.93;20.43;;;6.10;99.90;;;;;;4195105;28;20475;-81
2024/03/11 04:33:26;;;;;;;38.93;20.57;;;6.10;99.90;;;;;;4195515;28;20259;-81
2024/03/11 04:35:31;;;;;;;38.23;20.33;;;6.10;99.90;;;;;;4196940;28;20275;-81
2024/03/11 04:37:34;;;;;;;37.07;20.23;;;6.10;99.90;;;;;;4195931;28;20225;-81
2024/03/11 04:39:36;;;;;;;36.83;20.53;;;6.20;99.90;;;;;;4197703;28;20198;-80
2024/03/11 04:41:37;;;;;;;35.57;20.60;;;6.20;99.90;;;;;;4191960;28;20502;-81
2024/03/11 04:43:39;;;;;;;40.67;20.63;;;6.20;99.90;;;;;;4194465;28;20202;-81
2024/03/11 04:45:40;;;;;;;44.37;20.60;;;6.20;99.90;;;;;;4196997;28;20206;-81
2024/03/11 04:47:42;;;;;;;39.00;20.37;;;6.20;99.90;;;;;;4192737;28;20840;-80
2024/03/11 04:49:44;;;;;;;39.20;20.40;;;6.30;99.90;;;;;;4196158;28;20309;-80
2024/03/11 04:51:47;;;;;;;45.00;23.87;;;6.30;99.90;;;;;;4196457;28;20328;-80
2024/03/11 04:53:51;;;;;;;38.53;20.43;;;6.30;99.90;;;;;;4196672;28;20709;-80
2024/03/11 04:55:52;;;;;;;44.33;22.50;;;6.30;99.90;;;;;;4206660;28;22249;-80
2024/03/11 04:57:54;;;;;;;36.10;20.13;;;6.30;99.90;;;;;;4196206;28;20244;-80
2024/03/11 04:59:56;;;;;;;43.37;21.40;;;6.30;99.90;;;;;;4198876;28;20206;-81
2024/03/11 05:01:58;;;;;;;41.67;21.27;;;6.30;99.90;;;;;;4200363;28;20757;-81
2024/03/11 05:04:00;;;;;;;39.93;21.40;;;6.40;99.90;;;;;;4196755;28;20255;-81
2024/03/11 05:06:02;;;;;;;40.90;20.47;;;6.40;99.90;;;;;;4195261;28;20214;-81
2024/03/11 05:08:06;;;;;;;39.40;21.63;;;6.40;99.90;;;;;;4192062;28;20225;-81
2024/03/11 05:10:08;;;;;;;39.80;21.57;;;6.40;99.90;;;;;;4191405;28;20740;-81
2024/03/11 05:12:11;;;;;;;38.13;20.73;;;6.40;99.90;;;;;;4171461;28;20398;-81
2024/03/11 05:14:15;;;;;;;41.53;21.70;;;6.50;99.90;;;;;;4187465;28;20220;-82
2024/03/11 05:16:18;;;;;;;38.67;20.73;;;6.40;99.90;;;;;;4193132;28;20214;-81
2024/03/11 05:18:22;;;;;;;37.10;20.13;;;6.50;99.90;;;;;;4192519;28;20212;-81
2024/03/11 05:20:24;;;;;;;38.27;19.80;;;6.50;99.90;;;;;;4193370;28;20665;-81
2024/03/11 05:22:25;;;;;;;36.77;20.13;;;6.60;99.90;;;;;;4196948;28;20471;-81
2024/03/11 05:24:28;;;;;;;38.27;20.03;;;6.50;99.90;;;;;;4192677;28;20197;-81
2024/03/11 05:26:30;;;;;;;35.30;19.00;;;6.60;99.90;;;;;;4194187;28;20416;-81
2024/03/11 05:28:32;;;;;;;41.40;20.33;;;6.60;99.90;;;;;;4193758;28;20259;-81
2024/03/11 05:30:33;;;;;;;35.60;19.67;;;6.60;99.90;;;;;;4192601;28;20628;-81
2024/03/11 05:32:35;;;;;;;34.17;19.63;;;6.60;99.90;;;;;;4187042;28;20207;-81
2024/03/11 05:34:37;;;;;;;34.63;19.13;;;6.60;99.90;;;;;;4190394;28;20369;-81
2024/03/11 05:36:39;;;;;;;38.97;21.00;;;6.70;99.90;;;;;;4193495;28;20247;-81
2024/03/11 05:38:41;;;;;;;34.27;19.20;;;6.70;99.90;;;;;;4193692;28;20198;-81
2024/03/11 05:40:47;;;;;;;33.30;18.23;;;6.70;99.90;;;;;;4202732;28;20220;-81
2024/03/11 05:42:48;;;;;;;34.40;19.30;;;6.70;99.90;;;;;;4206907;28;20265;-81
2024/03/11 05:44:50;;;;;;;36.03;19.33;;;6.80;99.90;;;;;;4207845;28;20202;-81
2024/03/11 05:46:52;;;;;;;37.23;21.07;;;6.80;99.90;;;;;;4218820;28;20285;-81
2024/03/11 05:49:00;;;;;;;34.93;19.33;;;6.90;99.90;;;;;;4218761;28;20209;-80
2024/03/11 05:51:05;;;;;;;31.13;18.20;;;6.90;99.90;;;;;;4208035;28;20202;-81
2024/03/11 05:53:07;;;;;;;31.67;17.73;;;6.90;99.90;;;;;;4200603;28;20836;-82
2024/03/11 05:55:11;;;;;;;35.47;18.33;;;6.80;99.90;;;;;;4209916;28;20251;-81
2024/03/11 05:57:22;;;;;;;32.40;17.97;;;6.90;99.90;;;;;;4193215;28;20232;-78
2024/03/11 05:59:24;;;;;;;33.30;18.57;;;6.90;99.90;;;;;;4195278;28;20214;-78
2024/03/11 06:01:27;;;;;;;34.67;17.53;;;7.00;99.90;;;;;;4191782;28;20700;-80
2024/03/11 06:03:29;;;;;;;33.57;18.57;;;7.00;99.90;;;;;;4196691;28;20221;-81
2024/03/11 06:05:31;;;;;;;32.77;18.37;;;7.00;99.90;;;;;;4216344;28;20215;-81
2024/03/11 06:07:33;;;;;;;33.63;17.90;;;7.10;99.90;;;;;;4198436;28;20231;-81
2024/03/11 06:09:37;;;;;;;35.27;17.70;;;7.10;99.90;;;;;;4202698;28;20203;-81
2024/03/11 06:11:41;;;;;;;34.87;18.47;;;7.10;99.90;;;;;;4204733;28;20511;-80
2024/03/11 06:13:45;;;;;;;31.90;17.63;;;7.20;99.90;;;;;;4200817;28;20221;-81
2024/03/11 06:15:47;;;;;;;34.57;18.13;;;7.20;99.90;;;;;;4200492;28;20638;-80
2024/03/11 06:17:49;;;;;;;33.10;19.07;;;6.90;99.90;;;;;;4207300;28;20230;-80
2024/03/11 06:19:51;;;;;;;35.17;18.37;;;7.20;99.90;;;;;;4204066;28;20209;-80
2024/03/11 06:21:54;;;;;;;36.53;18.60;;;7.20;99.90;;;;;;4200621;28;20715;-81
2024/03/11 06:23:57;;;;;;;37.10;20.93;;;7.30;99.90;;;;;;4200153;28;20199;-81
2024/03/11 06:25:59;;;;;;;35.13;18.77;;;7.30;99.90;;;;;;4196560;28;20972;-80
2024/03/11 06:28:04;;;;;;;35.77;18.93;;;7.30;99.90;;;;;;4192784;28;20261;-82
2024/03/11 06:30:09;;;;;;;31.60;17.87;;;7.40;99.90;;;;;;4193606;28;21581;-82
2024/03/11 06:32:11;;;;;;;32.57;18.13;;;7.40;99.90;;;;;;4200751;28;20309;-81
2024/03/11 06:34:14;;;;;;;37.50;19.47;;;7.40;99.90;;;;;;4192835;28;20239;-82
2024/03/11 06:36:17;;;;;;;33.93;18.60;;;7.40;99.90;;;;;;4191399;28;20262;-83
2024/03/11 06:38:18;;;;;;;32.57;17.73;;;7.40;99.90;;;;;;4199524;28;20203;-81
2024/03/11 06:40:21;;;;;;;32.13;17.77;;;7.40;99.90;;;;;;4195218;28;20237;-82
2024/03/11 06:42:23;;;;;;;34.87;17.90;;;7.60;99.90;;;;;;4188425;28;20306;-76
2024/03/11 06:44:26;;;;;;;34.03;18.53;;;7.40;99.90;;;;;;4185974;28;20682;-78
2024/03/11 06:46:29;;;;;;;39.33;20.30;;;7.40;99.90;;;;;;4199365;28;20231;-78
2024/03/11 06:48:30;;;;;;;33.70;17.60;;;7.40;99.90;;;;;;4194147;28;20235;-80
2024/03/11 06:50:33;;;;;;;33.50;18.23;;;7.40;99.90;;;;;;4188617;28;20238;-78
2024/03/11 06:52:35;;;;;;;35.20;18.43;;;7.50;99.90;;;;;;4190222;28;20640;-79
2024/03/11 06:54:37;;;;;;;31.33;16.93;;;7.40;99.90;;;;;;4197621;28;20215;-81
2024/03/11 06:56:39;;;;;;;33.27;18.00;;;7.40;99.90;;;;;;4195398;28;20237;-82
2024/03/11 06:58:41;;;;;;;30.07;16.60;;;7.50;99.90;;;;;;4196028;28;20675;-79
2024/03/11 07:00:43;;;;;;;31.50;17.37;;;7.50;99.90;;;;;;4201081;28;20207;-82
2024/03/11 07:02:52;;;;;;;28.77;16.37;;;7.50;99.90;;;;;;4199368;28;20224;-81
2024/03/11 07:04:56;;;;;;;31.43;16.87;;;7.50;99.90;;;;;;4146447;28;20589;-80
2024/03/11 07:06:59;;;;;;;31.00;16.47;;;7.50;99.90;;;;;;4194595;28;20251;-82
2024/03/11 07:09:02;;;;;;;29.30;16.23;;;7.50;99.90;;;;;;4197822;28;20273;-82
2024/03/11 07:11:05;;;;;;;32.83;17.13;;;7.50;99.90;;;;;;4214712;28;20281;-80
2024/03/11 07:13:08;;;;;;;29.37;16.40;;;7.60;99.90;;;;;;4206105;28;20210;-79
2024/03/11 07:15:10;;;;;;;27.90;15.80;;;7.50;99.90;;;;;;4201125;28;20203;-79
2024/03/11 07:17:12;;;;;;;25.93;15.03;;;7.60;99.90;;;;;;4199153;28;20250;-80
2024/03/11 07:19:16;;;;;;;26.43;14.53;;;7.70;99.90;;;;;;4194497;28;20259;-80
2024/03/11 07:21:20;;;;;;;27.27;15.10;;;7.70;99.90;;;;;;4193977;28;20207;-81
2024/03/11 07:23:22;;;;;;;25.80;14.77;;;7.60;99.90;;;;;;4197235;28;20311;-79
2024/03/11 07:25:24;;;;;;;24.73;14.20;;;7.50;99.90;;;;;;4194372;28;20263;-80
2024/03/11 07:27:26;;;;;;;25.23;13.97;;;7.50;99.90;;;;;;4195207;28;20241;-80
2024/03/11 07:29:28;;;;;;;24.03;13.50;;;7.80;99.90;;;;;;4195849;28;20256;-80
2024/03/11 07:31:30;;;;;;;22.73;13.03;;;7.90;99.90;;;;;;4198728;28;20208;-80
2024/03/11 07:33:32;;;;;;;21.10;12.10;;;7.90;99.90;;;;;;4196762;28;20208;-79
2024/03/11 07:35:37;;;;;;;20.33;11.43;;;8.00;99.90;;;;;;4194502;28;20270;-79
2024/03/11 07:37:40;;;;;;;20.37;11.73;;;8.00;99.90;;;;;;4199160;28;20255;-80
2024/03/11 07:39:42;;;;;;;22.10;11.83;;;8.10;99.90;;;;;;4194099;28;20249;-80
2024/03/11 07:41:45;;;;;;;21.93;11.17;;;8.10;99.90;;;;;;4196191;28;20227;-80
2024/03/11 07:43:47;;;;;;;18.77;11.43;;;8.10;99.90;;;;;;4197170;28;20251;-80
2024/03/11 07:45:49;;;;;;;19.90;11.10;;;8.10;99.90;;;;;;4194211;28;20203;-81
2024/03/11 07:47:53;;;;;;;19.23;11.30;;;8.20;99.90;;;;;;4195182;28;20210;-80
2024/03/11 07:49:57;;;;;;;17.77;10.43;;;8.20;99.90;;;;;;4196141;28;20202;-80
2024/03/11 07:52:01;;;;;;;19.90;11.10;;;8.20;99.90;;;;;;4197113;28;20207;-81
2024/03/11 07:54:03;;;;;;;19.47;10.70;;;8.30;99.90;;;;;;4193545;28;20208;-80
2024/03/11 07:56:06;;;;;;;17.47;10.50;;;8.30;99.90;;;;;;4193192;28;20207;-82
2024/03/11 07:58:08;;;;;;;18.37;11.17;;;8.40;99.90;;;;;;4199330;28;20235;-81
2024/03/11 08:00:10;;;;;;;16.40;10.23;;;8.60;99.90;;;;;;4197680;28;20202;-79
2024/03/11 08:02:12;;;;;;;15.23;9.07;;;8.50;99.90;;;;;;4192350;28;20204;-79
2024/03/11 08:04:14;;;;;;;14.40;8.43;;;8.90;99.90;;;;;;4193344;28;20708;-80
2024/03/11 08:06:18;;;;;;;13.60;8.50;;;8.60;99.90;;;;;;4194396;28;20274;-78
2024/03/11 08:08:23;;;;;;;14.40;7.93;;;8.60;99.90;;;;;;4218356;28;20208;-78
2024/03/11 08:10:26;;;;;;;13.93;7.20;;;8.60;99.90;;;;;;4194940;28;20209;-78
2024/03/11 08:12:32;;;;;;;12.43;7.13;;;8.70;99.90;;;;;;4192491;28;20234;-79
2024/03/11 08:14:34;;;;;;;12.13;7.03;;;8.70;99.90;;;;;;4194744;28;20204;-80
2024/03/11 08:16:37;;;;;;;12.47;6.60;;;8.80;99.90;;;;;;4194036;28;20225;-79
2024/03/11 08:18:42;;;;;;;11.00;6.63;;;8.90;99.90;;;;;;4190845;28;20203;-79
2024/03/11 08:20:44;;;;;;;9.77;5.57;;;8.90;99.90;;;;;;4191357;28;20622;-79
2024/03/11 08:22:52;;;;;;;8.67;5.30;;;8.90;99.90;;;;;;4193566;28;20252;-79
2024/03/11 08:24:56;;;;;;;7.43;4.80;;;9.10;99.90;;;;;;4207364;28;20211;-79
2024/03/11 08:26:58;;;;;;;6.43;4.40;;;9.30;99.90;;;;;;4191381;28;20701;-78
2024/03/11 08:29:00;;;;;;;7.30;4.27;;;9.30;99.90;;;;;;4193235;28;20201;-80
2024/03/11 08:31:02;;;;;;;8.03;4.47;;;9.40;99.90;;;;;;4195393;28;20208;-80
2024/03/11 08:33:04;;;;;;;6.67;3.77;;;9.50;99.90;;;;;;4198260;28;20207;-79
2024/03/11 08:35:06;;;;;;;5.43;3.07;;;9.60;99.90;;;;;;4209255;28;20213;-80
2024/03/11 08:37:08;;;;;;;5.40;2.87;;;9.70;99.90;;;;;;4187441;28;20267;-79
2024/03/11 08:39:10;;;;;;;4.90;2.83;;;9.80;99.90;;;;;;4195949;28;20287;-79
2024/03/11 08:41:14;;;;;;;3.40;2.47;;;9.80;99.90;;;;;;4189818;28;20270;-79
2024/03/11 08:43:16;;;;;;;2.57;1.90;;;9.90;99.90;;;;;;4194534;28;20224;-79
2024/03/11 08:45:22;;;;;;;2.07;1.50;;;9.90;99.90;;;;;;4189955;28;20202;-78
2024/03/11 08:47:27;;;;;;;2.80;1.90;;;9.90;99.90;;;;;;4190497;28;20252;-79
2024/03/11 08:49:29;;;;;;;2.87;1.70;;;9.90;99.90;;;;;;4185777;28;20197;-78
2024/03/11 08:51:31;;;;;;;1.93;1.53;;;10.00;99.90;;;;;;4189015;28;20281;-78
2024/03/11 08:53:33;;;;;;;2.60;2.00;;;10.00;99.90;;;;;;4185422;28;20724;-78
2024/03/11 08:55:35;;;;;;;2.60;1.73;;;10.00;99.90;;;;;;4191820;28;20220;-78
2024/03/11 08:57:40;;;;;;;2.27;1.70;;;10.00;99.90;;;;;;4194188;28;20239;-78
2024/03/11 08:59:42;;;;;;;2.57;1.80;;;10.10;99.90;;;;;;4191983;28;20262;-79
2024/03/11 09:01:44;;;;;;;2.10;1.70;;;10.20;99.90;;;;;;4192382;28;20211;-80
2024/03/11 09:03:49;;;;;;;2.50;1.67;;;10.20;99.90;;;;;;4190298;28;20229;-80
2024/03/11 09:05:51;;;;;;;3.13;1.87;;;10.40;99.90;;;;;;4191201;28;20202;-79
2024/03/11 09:07:53;;;;;;;2.40;1.40;;;10.50;99.90;;;;;;4187939;28;20320;-79
2024/03/11 09:09:57;;;;;;;2.50;1.60;;;10.60;99.90;;;;;;4193771;28;20201;-79
2024/03/11 09:12:00;;;;;;;2.30;1.87;;;10.70;99.90;;;;;;4192760;28;20705;-82
2024/03/11 09:14:04;;;;;;;2.20;1.73;;;10.70;99.90;;;;;;4186864;28;20224;-79
2024/03/11 09:16:05;;;;;;;1.47;1.33;;;10.60;99.90;;;;;;4188596;28;20202;-79
2024/03/11 09:18:09;;;;;;;2.77;1.87;;;10.60;99.90;;;;;;4188626;28;20209;-79
2024/03/11 09:20:15;;;;;;;3.20;1.70;;;10.60;99.90;;;;;;4194540;28;20208;-80
2024/03/11 09:22:20;;;;;;;2.03;1.40;;;10.60;99.90;;;;;;4192491;28;20640;-79
2024/03/11 09:24:23;;;;;;;2.10;1.80;;;10.60;99.90;;;;;;4193309;28;20312;-81
2024/03/11 09:26:25;;;;;;;2.47;1.70;;;10.60;99.90;;;;;;4194500;28;20855;-81
2024/03/11 09:28:29;;;;;;;2.20;1.70;;;10.70;99.90;;;;;;4193862;28;20625;-80
2024/03/11 09:30:35;;;;;;;2.30;1.80;;;10.70;99.90;;;;;;4192075;28;20212;-80
2024/03/11 09:32:37;;;;;;;4.07;1.60;;;10.70;99.90;;;;;;4193141;28;20213;-81
2024/03/11 09:34:39;;;;;;;4.13;2.30;;;10.70;99.90;;;;;;4190100;28;20198;-81
2024/03/11 09:36:41;;;;;;;3.87;2.00;;;10.80;99.90;;;;;;4190160;28;20287;-81
2024/03/11 09:38:43;;;;;;;3.37;2.10;;;10.90;99.90;;;;;;4196050;28;20300;-81
2024/03/11 09:40:45;;;;;;;4.33;2.60;;;11.00;99.90;;;;;;4194586;28;20209;-82
2024/03/11 09:42:48;;;;;;;3.30;1.97;;;11.00;99.90;;;;;;4194178;28;20244;-79
2024/03/11 09:44:53;;;;;;;2.33;1.43;;;11.10;99.90;;;;;;4192031;28;20230;-80
2024/03/11 09:46:59;;;;;;;1.73;1.30;;;11.10;99.90;;;;;;4194612;28;20251;-81
2024/03/11 09:49:01;;;;;;;1.53;1.30;;;11.10;99.90;;;;;;4191422;28;20301;-80
2024/03/11 09:51:06;;;;;;;2.33;1.60;;;11.20;99.90;;;;;;4194645;28;20201;-80
2024/03/11 09:53:12;;;;;;;1.83;1.43;;;11.20;99.90;;;;;;4199701;28;20205;-80
2024/03/11 09:55:14;;;;;;;2.30;1.87;;;11.20;99.90;;;;;;4193184;28;20234;-79
2024/03/11 09:57:18;;;;;;;1.80;1.20;;;11.20;99.90;;;;;;4187973;28;20229;-80
2024/03/11 09:59:24;;;;;;;1.70;1.57;;;11.30;99.90;;;;;;4183860;28;20206;-77
2024/03/11 10:01:30;;;;;;;2.60;1.60;;;11.30;99.90;;;;;;4194134;28;20212;-80
2024/03/11 10:03:34;;;;;;;3.67;1.70;;;11.30;99.90;;;;;;4193055;28;20221;-81
2024/03/11 10:05:36;;;;;;;1.50;1.33;;;11.60;99.90;;;;;;4193727;28;20285;-81
2024/03/11 10:07:40;;;;;;;4.90;1.37;;;11.40;99.90;;;;;;4196374;28;20775;-80
2024/03/11 10:09:46;;;;;;;2.73;1.77;;;11.40;99.90;;;;;;4209582;28;20201;-78
2024/03/11 10:12:02;;;;;;;1.87;1.50;;;11.40;99.90;;;;;;4187664;28;20213;-80
2024/03/11 10:14:20;;;;;;;1.30;1.20;;;11.40;99.90;;;;;;4188311;28;20200;-80
2024/03/11 10:16:24;;;;;;;1.80;1.20;;;11.50;99.90;;;;;;4196103;28;20738;-80
2024/03/11 10:18:27;;;;;;;2.10;1.00;;;11.60;99.90;;;;;;4201197;28;20214;-79
2024/03/11 10:20:34;;;;;;;2.07;0.97;;;11.60;99.90;;;;;;4204859;28;20669;-79
2024/03/11 10:22:37;;;;;;;2.30;0.97;;;11.60;99.90;;;;;;4199343;28;20225;-78
2024/03/11 10:24:40;;;;;;;1.23;0.73;;;11.70;99.90;;;;;;4203527;28;20281;-80
2024/03/11 10:26:45;;;;;;;0.80;0.70;;;11.80;99.90;;;;;;4199092;28;21105;-79
2024/03/11 10:28:49;;;;;;;0.80;0.70;;;11.80;99.90;;;;;;4196711;28;20214;-79
2024/03/11 10:30:51;;;;;;;0.70;0.70;;;11.90;99.90;;;;;;4188620;28;20234;-79
2024/03/11 10:32:55;;;;;;;1.30;0.90;;;12.00;99.90;;;;;;4187912;28;20204;-80
2024/03/11 10:34:57;;;;;;;2.13;0.83;;;12.20;99.90;;;;;;4186773;28;20255;-76